Terminal Aerodrome Forecast
Issued by NWS

Home | Current Version | Previous Version | Text Only | Print | Product List | Glossary Off
Versions: 1 2 3 4 5 6 7 8 9 10 11 12 13

000
FTUS43 KBIS 210525
TAFJMS
TAF
KJMS 210525Z 2106/2206 19006KT P6SM SCT090 BKN120
     FM212000 23007KT P6SM SCT050
     FM212300 29007KT P6SM BKN110
     FM220000 31007KT P6SM SCT100=

USA.gov is the U.S. government's official web portal to all federal, state and local government web resources and services.